sensor_id;sensor_type;location;lat;lon;timestamp;P1;durP1;ratioP1;P2;durP2;ratioP2
4210;SDS011;2119;48.828;12.396;2022-07-22T00:04:24;21.43;;;18.30;;
4210;SDS011;2119;48.828;12.396;2022-07-22T00:09:24;20.00;;;17.98;;
4210;SDS011;2119;48.828;12.396;2022-07-22T00:14:25;20.55;;;17.95;;
4210;SDS011;2119;48.828;12.396;2022-07-22T00:19:25;19.97;;;17.90;;
4210;SDS011;2119;48.828;12.396;2022-07-22T00:24:25;18.90;;;16.80;;
4210;SDS011;2119;48.828;12.396;2022-07-22T00:29:25;19.63;;;17.63;;
4210;SDS011;2119;48.828;12.396;2022-07-22T00:34:26;19.50;;;17.20;;
4210;SDS011;2119;48.828;12.396;2022-07-22T00:39:27;20.13;;;18.20;;
4210;SDS011;2119;48.828;12.396;2022-07-22T00:44:27;20.53;;;18.63;;
4210;SDS011;2119;48.828;12.396;2022-07-22T00:49:27;20.33;;;18.53;;
4210;SDS011;2119;48.828;12.396;2022-07-22T00:54:28;24.10;;;19.77;;
4210;SDS011;2119;48.828;12.396;2022-07-22T00:59:28;21.20;;;18.90;;
4210;SDS011;2119;48.828;12.396;2022-07-22T01:04:30;23.08;;;18.45;;
4210;SDS011;2119;48.828;12.396;2022-07-22T01:09:31;20.90;;;18.80;;
4210;SDS011;2119;48.828;12.396;2022-07-22T01:14:31;21.43;;;18.90;;
4210;SDS011;2119;48.828;12.396;2022-07-22T01:19:32;19.50;;;17.60;;
4210;SDS011;2119;48.828;12.396;2022-07-22T01:24:35;19.93;;;17.60;;
4210;SDS011;2119;48.828;12.396;2022-07-22T01:29:36;19.95;;;17.77;;
4210;SDS011;2119;48.828;12.396;2022-07-22T01:34:36;19.23;;;17.13;;
4210;SDS011;2119;48.828;12.396;2022-07-22T01:39:38;23.67;;;18.10;;
4210;SDS011;2119;48.828;12.396;2022-07-22T01:44:40;18.70;;;16.70;;
4210;SDS011;2119;48.828;12.396;2022-07-22T01:49:44;26.40;;;17.20;;
4210;SDS011;2119;48.828;12.396;2022-07-22T01:54:44;19.90;;;17.80;;
4210;SDS011;2119;48.828;12.396;2022-07-22T01:59:44;19.30;;;17.37;;
4210;SDS011;2119;48.828;12.396;2022-07-22T02:04:45;19.00;;;17.10;;
4210;SDS011;2119;48.828;12.396;2022-07-22T02:09:48;19.53;;;17.43;;
4210;SDS011;2119;48.828;12.396;2022-07-22T02:14:48;21.40;;;19.30;;
4210;SDS011;2119;48.828;12.396;2022-07-22T02:19:48;20.33;;;18.23;;
4210;SDS011;2119;48.828;12.396;2022-07-22T02:24:49;20.77;;;18.67;;
4210;SDS011;2119;48.828;12.396;2022-07-22T02:29:50;18.90;;;17.00;;
4210;SDS011;2119;48.828;12.396;2022-07-22T02:34:50;20.13;;;18.00;;
4210;SDS011;2119;48.828;12.396;2022-07-22T02:39:50;19.00;;;17.03;;
4210;SDS011;2119;48.828;12.396;2022-07-22T02:44:50;19.97;;;17.87;;
4210;SDS011;2119;48.828;12.396;2022-07-22T02:49:52;20.53;;;17.73;;
4210;SDS011;2119;48.828;12.396;2022-07-22T02:54:52;20.57;;;17.77;;
4210;SDS011;2119;48.828;12.396;2022-07-22T02:59:52;22.40;;;20.00;;
4210;SDS011;2119;48.828;12.396;2022-07-22T03:04:52;21.30;;;19.20;;
4210;SDS011;2119;48.828;12.396;2022-07-22T03:09:53;19.97;;;17.87;;
4210;SDS011;2119;48.828;12.396;2022-07-22T03:14:53;20.23;;;18.13;;
4210;SDS011;2119;48.828;12.396;2022-07-22T03:19:53;25.20;;;19.67;;
4210;SDS011;2119;48.828;12.396;2022-07-22T03:24:55;21.10;;;18.33;;
4210;SDS011;2119;48.828;12.396;2022-07-22T03:29:55;18.67;;;16.70;;
4210;SDS011;2119;48.828;12.396;2022-07-22T03:34:57;21.13;;;17.93;;
4210;SDS011;2119;48.828;12.396;2022-07-22T03:39:57;19.93;;;18.00;;
4210;SDS011;2119;48.828;12.396;2022-07-22T03:44:57;20.50;;;18.50;;
4210;SDS011;2119;48.828;12.396;2022-07-22T03:49:57;22.97;;;18.70;;
4210;SDS011;2119;48.828;12.396;2022-07-22T03:54:58;21.43;;;18.87;;
4210;SDS011;2119;48.828;12.396;2022-07-22T03:59:58;23.00;;;20.70;;
4210;SDS011;2119;48.828;12.396;2022-07-22T04:04:58;22.02;;;19.88;;
4210;SDS011;2119;48.828;12.396;2022-07-22T04:09:59;22.15;;;18.38;;
4210;SDS011;2119;48.828;12.396;2022-07-22T04:15:05;21.37;;;19.00;;
4210;SDS011;2119;48.828;12.396;2022-07-22T04:20:17;19.83;;;17.13;;
4210;SDS011;2119;48.828;12.396;2022-07-22T04:25:18;22.00;;;17.33;;
4210;SDS011;2119;48.828;12.396;2022-07-22T04:30:27;20.50;;;18.33;;
4210;SDS011;2119;48.828;12.396;2022-07-22T04:35:27;21.90;;;19.70;;
4210;SDS011;2119;48.828;12.396;2022-07-22T04:40:28;24.37;;;20.40;;
4210;SDS011;2119;48.828;12.396;2022-07-22T04:45:28;26.57;;;20.10;;
4210;SDS011;2119;48.828;12.396;2022-07-22T04:50:47;23.37;;;20.97;;
4210;SDS011;2119;48.828;12.396;2022-07-22T04:55:47;26.63;;;23.77;;
4210;SDS011;2119;48.828;12.396;2022-07-22T05:00:49;28.00;;;22.87;;
4210;SDS011;2119;48.828;12.396;2022-07-22T05:05:53;23.90;;;21.47;;
4210;SDS011;2119;48.828;12.396;2022-07-22T05:10:54;26.47;;;23.60;;
4210;SDS011;2119;48.828;12.396;2022-07-22T05:16:01;31.17;;;25.70;;
4210;SDS011;2119;48.828;12.396;2022-07-22T05:21:08;27.07;;;24.13;;
4210;SDS011;2119;48.828;12.396;2022-07-22T05:31:19;31.53;;;26.97;;
4210;SDS011;2119;48.828;12.396;2022-07-22T05:36:21;32.37;;;25.97;;
4210;SDS011;2119;48.828;12.396;2022-07-22T05:41:29;29.60;;;26.50;;
4210;SDS011;2119;48.828;12.396;2022-07-22T05:46:29;28.53;;;24.90;;
4210;SDS011;2119;48.828;12.396;2022-07-22T05:56:49;29.53;;;25.30;;
4210;SDS011;2119;48.828;12.396;2022-07-22T06:01:49;29.70;;;26.60;;
4210;SDS011;2119;48.828;12.396;2022-07-22T06:06:52;30.67;;;27.40;;
4210;SDS011;2119;48.828;12.396;2022-07-22T06:12:00;26.73;;;24.03;;
4210;SDS011;2119;48.828;12.396;2022-07-22T06:17:00;30.03;;;26.30;;
4210;SDS011;2119;48.828;12.396;2022-07-22T06:22:01;30.20;;;25.90;;
4210;SDS011;2119;48.828;12.396;2022-07-22T06:27:01;31.23;;;26.47;;
4210;SDS011;2119;48.828;12.396;2022-07-22T06:32:02;30.40;;;26.30;;
4210;SDS011;2119;48.828;12.396;2022-07-22T06:37:03;31.60;;;26.93;;
4210;SDS011;2119;48.828;12.396;2022-07-22T06:42:03;27.40;;;24.63;;
4210;SDS011;2119;48.828;12.396;2022-07-22T06:47:04;28.50;;;25.50;;
4210;SDS011;2119;48.828;12.396;2022-07-22T06:52:04;28.20;;;24.83;;
4210;SDS011;2119;48.828;12.396;2022-07-22T06:57:04;26.53;;;23.87;;
4210;SDS011;2119;48.828;12.396;2022-07-22T07:02:04;27.50;;;23.70;;
4210;SDS011;2119;48.828;12.396;2022-07-22T07:07:05;28.67;;;25.45;;
4210;SDS011;2119;48.828;12.396;2022-07-22T07:12:05;27.87;;;25.00;;
4210;SDS011;2119;48.828;12.396;2022-07-22T07:17:06;26.33;;;23.77;;
4210;SDS011;2119;48.828;12.396;2022-07-22T07:22:06;28.13;;;25.10;;
4210;SDS011;2119;48.828;12.396;2022-07-22T07:27:06;27.17;;;24.20;;
4210;SDS011;2119;48.828;12.396;2022-07-22T07:32:07;26.60;;;23.90;;
4210;SDS011;2119;48.828;12.396;2022-07-22T07:37:07;27.70;;;24.90;;
4210;SDS011;2119;48.828;12.396;2022-07-22T07:42:07;24.50;;;22.10;;
4210;SDS011;2119;48.828;12.396;2022-07-22T07:47:07;26.13;;;23.40;;
4210;SDS011;2119;48.828;12.396;2022-07-22T07:52:08;25.47;;;22.83;;
4210;SDS011;2119;48.828;12.396;2022-07-22T07:57:08;25.50;;;22.80;;
4210;SDS011;2119;48.828;12.396;2022-07-22T08:02:10;25.27;;;22.40;;
4210;SDS011;2119;48.828;12.396;2022-07-22T08:07:10;23.65;;;21.40;;
4210;SDS011;2119;48.828;12.396;2022-07-22T08:12:10;23.00;;;20.93;;
4210;SDS011;2119;48.828;12.396;2022-07-22T08:17:13;22.53;;;20.33;;
4210;SDS011;2119;48.828;12.396;2022-07-22T08:22:13;20.97;;;19.07;;
4210;SDS011;2119;48.828;12.396;2022-07-22T08:27:14;21.77;;;19.77;;
4210;SDS011;2119;48.828;12.396;2022-07-22T08:32:14;21.47;;;19.27;;
4210;SDS011;2119;48.828;12.396;2022-07-22T08:37:14;19.60;;;17.80;;
4210;SDS011;2119;48.828;12.396;2022-07-22T08:42:14;18.75;;;17.15;;
4210;SDS011;2119;48.828;12.396;2022-07-22T08:47:15;16.60;;;15.03;;
4210;SDS011;2119;48.828;12.396;2022-07-22T08:52:15;14.30;;;12.90;;
4210;SDS011;2119;48.828;12.396;2022-07-22T08:57:16;15.90;;;14.70;;
4210;SDS011;2119;48.828;12.396;2022-07-22T09:02:17;14.57;;;13.37;;
4210;SDS011;2119;48.828;12.396;2022-07-22T09:07:24;14.57;;;13.30;;
4210;SDS011;2119;48.828;12.396;2022-07-22T09:12:25;15.50;;;14.20;;
4210;SDS011;2119;48.828;12.396;2022-07-22T09:17:33;15.83;;;14.53;;
4210;SDS011;2119;48.828;12.396;2022-07-22T09:22:42;15.57;;;14.37;;
4210;SDS011;2119;48.828;12.396;2022-07-22T09:27:49;14.63;;;13.50;;
4210;SDS011;2119;48.828;12.396;2022-07-22T09:32:51;13.93;;;12.73;;
4210;SDS011;2119;48.828;12.396;2022-07-22T09:37:55;15.60;;;14.43;;
4210;SDS011;2119;48.828;12.396;2022-07-22T09:42:57;15.17;;;13.87;;
4210;SDS011;2119;48.828;12.396;2022-07-22T09:47:58;15.70;;;14.50;;
4210;SDS011;2119;48.828;12.396;2022-07-22T09:53:00;16.30;;;14.97;;
4210;SDS011;2119;48.828;12.396;2022-07-22T09:58:00;14.60;;;13.50;;
4210;SDS011;2119;48.828;12.396;2022-07-22T10:03:01;14.90;;;13.67;;
4210;SDS011;2119;48.828;12.396;2022-07-22T10:08:02;15.03;;;13.73;;
4210;SDS011;2119;48.828;12.396;2022-07-22T10:13:04;14.40;;;13.20;;
4210;SDS011;2119;48.828;12.396;2022-07-22T10:18:09;14.80;;;13.30;;
4210;SDS011;2119;48.828;12.396;2022-07-22T10:23:13;13.63;;;12.27;;
4210;SDS011;2119;48.828;12.396;2022-07-22T10:28:30;13.40;;;12.50;;
4210;SDS011;2119;48.828;12.396;2022-07-22T10:33:31;14.00;;;12.87;;
4210;SDS011;2119;48.828;12.396;2022-07-22T10:38:32;12.63;;;11.63;;
4210;SDS011;2119;48.828;12.396;2022-07-22T10:53:55;13.27;;;12.33;;
4210;SDS011;2119;48.828;12.396;2022-07-22T10:58:57;13.97;;;12.70;;
4210;SDS011;2119;48.828;12.396;2022-07-22T11:09:17;14.67;;;13.03;;
4210;SDS011;2119;48.828;12.396;2022-07-22T11:14:22;13.33;;;12.40;;
4210;SDS011;2119;48.828;12.396;2022-07-22T11:19:28;13.27;;;12.03;;
4210;SDS011;2119;48.828;12.396;2022-07-22T11:24:29;13.40;;;12.50;;
4210;SDS011;2119;48.828;12.396;2022-07-22T11:34:30;13.63;;;12.40;;
4210;SDS011;2119;48.828;12.396;2022-07-22T11:39:30;13.87;;;12.37;;
4210;SDS011;2119;48.828;12.396;2022-07-22T11:44:32;14.20;;;13.17;;
4210;SDS011;2119;48.828;12.396;2022-07-22T11:49:33;13.47;;;12.47;;
4210;SDS011;2119;48.828;12.396;2022-07-22T11:54:34;12.80;;;11.90;;
4210;SDS011;2119;48.828;12.396;2022-07-22T11:59:35;12.20;;;11.33;;
4210;SDS011;2119;48.828;12.396;2022-07-22T12:04:35;13.67;;;12.57;;
4210;SDS011;2119;48.828;12.396;2022-07-22T12:09:36;12.63;;;11.63;;
4210;SDS011;2119;48.828;12.396;2022-07-22T12:14:43;12.43;;;11.57;;
4210;SDS011;2119;48.828;12.396;2022-07-22T12:19:44;12.93;;;11.93;;
4210;SDS011;2119;48.828;12.396;2022-07-22T12:24:45;12.07;;;11.27;;
4210;SDS011;2119;48.828;12.396;2022-07-22T12:29:47;11.70;;;10.60;;
4210;SDS011;2119;48.828;12.396;2022-07-22T12:34:54;12.50;;;11.57;;
4210;SDS011;2119;48.828;12.396;2022-07-22T12:39:59;13.17;;;12.20;;
4210;SDS011;2119;48.828;12.396;2022-07-22T12:55:19;12.47;;;11.20;;
4210;SDS011;2119;48.828;12.396;2022-07-22T13:00:21;11.97;;;11.10;;
4210;SDS011;2119;48.828;12.396;2022-07-22T13:05:22;11.67;;;10.57;;
4210;SDS011;2119;48.828;12.396;2022-07-22T13:10:23;11.10;;;10.40;;
4210;SDS011;2119;48.828;12.396;2022-07-22T13:15:24;11.00;;;10.10;;
4210;SDS011;2119;48.828;12.396;2022-07-22T13:20:24;11.13;;;10.30;;
4210;SDS011;2119;48.828;12.396;2022-07-22T13:25:24;11.90;;;10.90;;
4210;SDS011;2119;48.828;12.396;2022-07-22T13:30:26;10.90;;;9.90;;
4210;SDS011;2119;48.828;12.396;2022-07-22T13:35:26;10.93;;;10.30;;
4210;SDS011;2119;48.828;12.396;2022-07-22T13:40:29;12.00;;;11.20;;
4210;SDS011;2119;48.828;12.396;2022-07-22T13:45:29;10.70;;;9.70;;
4210;SDS011;2119;48.828;12.396;2022-07-22T13:50:30;10.30;;;9.63;;
4210;SDS011;2119;48.828;12.396;2022-07-22T13:55:30;11.20;;;10.20;;
4210;SDS011;2119;48.828;12.396;2022-07-22T14:00:31;10.93;;;10.20;;
4210;SDS011;2119;48.828;12.396;2022-07-22T14:05:31;11.23;;;10.30;;
4210;SDS011;2119;48.828;12.396;2022-07-22T14:10:31;10.60;;;10.00;;
4210;SDS011;2119;48.828;12.396;2022-07-22T14:15:32;10.50;;;9.70;;
4210;SDS011;2119;48.828;12.396;2022-07-22T14:20:33;10.23;;;9.50;;
4210;SDS011;2119;48.828;12.396;2022-07-22T14:25:33;10.43;;;9.63;;
4210;SDS011;2119;48.828;12.396;2022-07-22T14:30:33;10.43;;;9.60;;
4210;SDS011;2119;48.828;12.396;2022-07-22T14:35:34;10.10;;;9.50;;
4210;SDS011;2119;48.828;12.396;2022-07-22T14:40:34;10.27;;;9.57;;
4210;SDS011;2119;48.828;12.396;2022-07-22T14:45:35;11.27;;;10.47;;
4210;SDS011;2119;48.828;12.396;2022-07-22T14:50:35;11.97;;;11.27;;
4210;SDS011;2119;48.828;12.396;2022-07-22T14:55:35;13.50;;;12.40;;
4210;SDS011;2119;48.828;12.396;2022-07-22T15:00:35;10.20;;;9.57;;
4210;SDS011;2119;48.828;12.396;2022-07-22T15:05:35;10.37;;;9.60;;
4210;SDS011;2119;48.828;12.396;2022-07-22T15:10:36;10.17;;;9.47;;
4210;SDS011;2119;48.828;12.396;2022-07-22T15:15:36;9.97;;;9.37;;
4210;SDS011;2119;48.828;12.396;2022-07-22T15:20:38;9.77;;;9.20;;
4210;SDS011;2119;48.828;12.396;2022-07-22T15:25:38;10.53;;;9.83;;
4210;SDS011;2119;48.828;12.396;2022-07-22T15:30:39;10.77;;;9.90;;
4210;SDS011;2119;48.828;12.396;2022-07-22T15:35:39;10.73;;;10.00;;
4210;SDS011;2119;48.828;12.396;2022-07-22T15:40:39;10.50;;;9.60;;
4210;SDS011;2119;48.828;12.396;2022-07-22T15:45:39;10.40;;;9.50;;
4210;SDS011;2119;48.828;12.396;2022-07-22T15:50:40;9.30;;;8.80;;
4210;SDS011;2119;48.828;12.396;2022-07-22T15:55:40;10.50;;;9.60;;
4210;SDS011;2119;48.828;12.396;2022-07-22T16:00:42;9.97;;;9.37;;
4210;SDS011;2119;48.828;12.396;2022-07-22T16:05:43;10.67;;;9.83;;
4210;SDS011;2119;48.828;12.396;2022-07-22T16:10:43;9.63;;;8.90;;
4210;SDS011;2119;48.828;12.396;2022-07-22T16:15:44;11.20;;;10.20;;
4210;SDS011;2119;48.828;12.396;2022-07-22T16:20:44;10.07;;;9.40;;
4210;SDS011;2119;48.828;12.396;2022-07-22T16:25:44;10.47;;;9.87;;
4210;SDS011;2119;48.828;12.396;2022-07-22T16:30:45;10.50;;;9.63;;
4210;SDS011;2119;48.828;12.396;2022-07-22T16:35:45;11.20;;;10.20;;
4210;SDS011;2119;48.828;12.396;2022-07-22T16:40:45;10.23;;;9.33;;
4210;SDS011;2119;48.828;12.396;2022-07-22T16:45:47;10.03;;;9.37;;
4210;SDS011;2119;48.828;12.396;2022-07-22T16:50:47;9.93;;;9.13;;
4210;SDS011;2119;48.828;12.396;2022-07-22T16:55:47;11.27;;;10.37;;
4210;SDS011;2119;48.828;12.396;2022-07-22T17:00:47;9.87;;;9.23;;
4210;SDS011;2119;48.828;12.396;2022-07-22T17:05:48;10.20;;;9.40;;
4210;SDS011;2119;48.828;12.396;2022-07-22T17:10:48;10.23;;;9.33;;
4210;SDS011;2119;48.828;12.396;2022-07-22T17:15:48;10.07;;;9.47;;
4210;SDS011;2119;48.828;12.396;2022-07-22T17:20:48;10.40;;;9.70;;
4210;SDS011;2119;48.828;12.396;2022-07-22T17:25:49;9.90;;;9.30;;
4210;SDS011;2119;48.828;12.396;2022-07-22T17:30:49;9.67;;;8.80;;
4210;SDS011;2119;48.828;12.396;2022-07-22T17:35:49;9.37;;;8.77;;
4210;SDS011;2119;48.828;12.396;2022-07-22T17:40:50;10.20;;;9.40;;
4210;SDS011;2119;48.828;12.396;2022-07-22T17:45:50;10.33;;;9.50;;
4210;SDS011;2119;48.828;12.396;2022-07-22T17:50:51;12.27;;;9.03;;
4210;SDS011;2119;48.828;12.396;2022-07-22T17:55:51;10.50;;;9.80;;
4210;SDS011;2119;48.828;12.396;2022-07-22T18:00:51;11.00;;;9.90;;
4210;SDS011;2119;48.828;12.396;2022-07-22T18:05:52;9.97;;;9.23;;
4210;SDS011;2119;48.828;12.396;2022-07-22T18:10:52;12.47;;;9.13;;
4210;SDS011;2119;48.828;12.396;2022-07-22T18:15:56;16.07;;;10.10;;
4210;SDS011;2119;48.828;12.396;2022-07-22T18:20:56;12.73;;;9.33;;
4210;SDS011;2119;48.828;12.396;2022-07-22T18:25:56;9.97;;;8.97;;
4210;SDS011;2119;48.828;12.396;2022-07-22T18:30:57;9.20;;;8.70;;
4210;SDS011;2119;48.828;12.396;2022-07-22T18:35:57;9.50;;;8.80;;
4210;SDS011;2119;48.828;12.396;2022-07-22T18:40:57;10.03;;;8.93;;
4210;SDS011;2119;48.828;12.396;2022-07-22T18:45:58;9.43;;;8.83;;
4210;SDS011;2119;48.828;12.396;2022-07-22T18:51:00;8.13;;;7.53;;
4210;SDS011;2119;48.828;12.396;2022-07-22T18:56:02;9.47;;;8.67;;
4210;SDS011;2119;48.828;12.396;2022-07-22T19:01:03;10.33;;;8.57;;
4210;SDS011;2119;48.828;12.396;2022-07-22T19:06:03;17.37;;;10.03;;
4210;SDS011;2119;48.828;12.396;2022-07-22T19:11:04;14.43;;;11.00;;
4210;SDS011;2119;48.828;12.396;2022-07-22T19:16:04;16.37;;;10.40;;
4210;SDS011;2119;48.828;12.396;2022-07-22T19:21:05;18.03;;;11.00;;
4210;SDS011;2119;48.828;12.396;2022-07-22T19:26:05;17.30;;;10.00;;
4210;SDS011;2119;48.828;12.396;2022-07-22T19:31:06;20.07;;;11.07;;
4210;SDS011;2119;48.828;12.396;2022-07-22T19:36:06;19.43;;;11.50;;
4210;SDS011;2119;48.828;12.396;2022-07-22T19:41:07;22.40;;;14.90;;
4210;SDS011;2119;48.828;12.396;2022-07-22T19:46:07;25.10;;;18.43;;
4210;SDS011;2119;48.828;12.396;2022-07-22T19:51:07;16.27;;;13.50;;
4210;SDS011;2119;48.828;12.396;2022-07-22T19:56:07;15.30;;;12.07;;
4210;SDS011;2119;48.828;12.396;2022-07-22T20:01:08;20.93;;;13.33;;
4210;SDS011;2119;48.828;12.396;2022-07-22T20:06:08;28.63;;;17.03;;
4210;SDS011;2119;48.828;12.396;2022-07-22T20:11:09;24.40;;;16.77;;
4210;SDS011;2119;48.828;12.396;2022-07-22T20:16:09;27.53;;;12.00;;
4210;SDS011;2119;48.828;12.396;2022-07-22T20:21:09;20.20;;;12.43;;
4210;SDS011;2119;48.828;12.396;2022-07-22T20:26:09;22.90;;;12.90;;
4210;SDS011;2119;48.828;12.396;2022-07-22T20:31:10;19.92;;;12.05;;
4210;SDS011;2119;48.828;12.396;2022-07-22T20:36:10;24.43;;;10.90;;
4210;SDS011;2119;48.828;12.396;2022-07-22T20:41:10;17.10;;;12.33;;
4210;SDS011;2119;48.828;12.396;2022-07-22T20:46:11;13.73;;;11.45;;
4210;SDS011;2119;48.828;12.396;2022-07-22T20:51:11;12.30;;;10.57;;
4210;SDS011;2119;48.828;12.396;2022-07-22T20:56:11;11.83;;;10.77;;
4210;SDS011;2119;48.828;12.396;2022-07-22T21:01:11;13.17;;;10.93;;
4210;SDS011;2119;48.828;12.396;2022-07-22T21:06:12;11.37;;;10.43;;
4210;SDS011;2119;48.828;12.396;2022-07-22T21:11:12;13.60;;;11.27;;
4210;SDS011;2119;48.828;12.396;2022-07-22T21:16:12;12.13;;;11.03;;
4210;SDS011;2119;48.828;12.396;2022-07-22T21:21:13;11.90;;;10.90;;
4210;SDS011;2119;48.828;12.396;2022-07-22T21:26:13;12.50;;;11.40;;
4210;SDS011;2119;48.828;12.396;2022-07-22T21:31:13;17.13;;;11.80;;
4210;SDS011;2119;48.828;12.396;2022-07-22T21:36:13;12.03;;;11.10;;
4210;SDS011;2119;48.828;12.396;2022-07-22T21:41:14;12.87;;;11.67;;
4210;SDS011;2119;48.828;12.396;2022-07-22T21:46:14;23.70;;;12.30;;
4210;SDS011;2119;48.828;12.396;2022-07-22T21:51:14;12.53;;;11.37;;
4210;SDS011;2119;48.828;12.396;2022-07-22T21:56:15;12.80;;;11.70;;
4210;SDS011;2119;48.828;12.396;2022-07-22T22:01:33;12.47;;;10.70;;
4210;SDS011;2119;48.828;12.396;2022-07-22T22:06:34;18.23;;;10.93;;
4210;SDS011;2119;48.828;12.396;2022-07-22T22:11:34;13.20;;;11.80;;
4210;SDS011;2119;48.828;12.396;2022-07-22T22:16:34;13.60;;;12.10;;
4210;SDS011;2119;48.828;12.396;2022-07-22T22:21:35;21.17;;;11.77;;
4210;SDS011;2119;48.828;12.396;2022-07-22T22:26:36;16.23;;;12.17;;
4210;SDS011;2119;48.828;12.396;2022-07-22T22:31:36;19.27;;;12.90;;
4210;SDS011;2119;48.828;12.396;2022-07-22T22:36:36;14.93;;;12.47;;
4210;SDS011;2119;48.828;12.396;2022-07-22T22:41:37;13.77;;;12.40;;
4210;SDS011;2119;48.828;12.396;2022-07-22T22:46:37;13.40;;;11.13;;
4210;SDS011;2119;48.828;12.396;2022-07-22T22:51:37;13.53;;;12.30;;
4210;SDS011;2119;48.828;12.396;2022-07-22T22:56:37;13.07;;;11.57;;
4210;SDS011;2119;48.828;12.396;2022-07-22T23:01:38;12.47;;;11.37;;
4210;SDS011;2119;48.828;12.396;2022-07-22T23:06:38;13.70;;;11.13;;
4210;SDS011;2119;48.828;12.396;2022-07-22T23:11:38;12.43;;;11.43;;
4210;SDS011;2119;48.828;12.396;2022-07-22T23:16:38;12.87;;;11.80;;
4210;SDS011;2119;48.828;12.396;2022-07-22T23:21:39;17.30;;;12.60;;
4210;SDS011;2119;48.828;12.396;2022-07-22T23:26:39;14.23;;;12.77;;
4210;SDS011;2119;48.828;12.396;2022-07-22T23:31:39;13.47;;;12.20;;
4210;SDS011;2119;48.828;12.396;2022-07-22T23:36:40;15.30;;;13.33;;
4210;SDS011;2119;48.828;12.396;2022-07-22T23:41:41;14.17;;;12.73;;
4210;SDS011;2119;48.828;12.396;2022-07-22T23:46:41;13.83;;;12.60;;
4210;SDS011;2119;48.828;12.396;2022-07-22T23:51:41;12.43;;;11.50;;
4210;SDS011;2119;48.828;12.396;2022-07-22T23:56:41;13.33;;;11.23;;
